logo
App data

Crab Cakes Rescue

Crab Cakes Rescue is a wacky puzzle game unlike any other. Find unlikely paths through nearly 100 zany levels by shedding your shell and building blocks where obstacles occur!
Store | Hub | SteamDB | Site
Developer: Mission Critical Studios Publisher: KISS ltd, Maximum Games
Genre: Casual, Indie
Languages: English, French, Italian, German, Spanish - Spain
Tags: Indie (23), Casual (22)
Category: Single-player, Steam Trading Cards, Steam Leaderboards
Release date: Nov 14, 2014
Price: $6.99
Old userscore: 62% Owners: 20,000 .. 50,000
Followers: 95
Peak concurrent players yesterday: 3
Playtime total: 03:40 (average) 03:28 (median)

Steam Spy is still in beta, so expect major bugs.

Owners data:

Access restricted.

This feature is only available to users with special access rights. Sorry.

If you want to proceed, you need to register or log in first and then back Steam Spy on Patreon. Look for Indie or Pro pledge.

Don't forget to use the same email as on Steam Spy!

Audience in 2 weeks:

Access restricted.

This feature is only available to users with special access rights. Sorry.

If you want to proceed, you need to register or log in first and then back Steam Spy on Patreon. Look for Indie or Pro pledge.

Don't forget to use the same email as on Steam Spy!

Peak daily concurrent players:

CCU data courtesy of SteamDB. Used with permission.

Hourly concurrent players:

Daily Twitch stats:

Hourly Twitch stats:

YouTube:

The views data is based on top 50 videos uploaded last week. Actual number of views might be more than the number shown.

The displayed number of videos uploaded yesterday is limited to 50, so if there were more videos uploaded, the number will still show 50.

If the game has commonly used word as its name (like "FEAR" or "Volume") its number of Youtube views might be wrong.

Games similar to this one:

# Game Release date
Price
Score rank
(Userscore / Metascore)
Owners
Players
Playtime (Median)
1 Night Blights Apr 15, 2016 $6.99100% (100%)0 .. 20,0000%00:00 (00:00)
2 Everyday Genius: SquareLogic Oct 21, 2009 $4.9999% (98%)0 .. 20,0000%00:00 (00:00)
3 Unium Mar 27, 2015 $1.9992% (95%)20,000 .. 50,0000%00:00 (00:00)
4 Divide By Sheep Jul 2, 2015 $4.9992% (95%/83%)100,000 .. 200,0000%00:00 (00:00)
5 Moonlight Feb 5, 2016 $1.9992% (95%)0 .. 20,0000%00:00 (00:00)
6 Mevo and The Grooveriders Mar 20, 2009 $9.99N/A (N/A)0 .. 20,0000%00:00 (00:00)
7 Estiman Nov 23, 2016 $0.99N/A (N/A)0 .. 20,0000%00:00 (00:00)
8 The Way We All Go Mar 24, 2015 $5.9976% (90%)0 .. 20,0000%00:00 (00:00)
9 Cloudberry Kingdom Aug 2, 2013 $9.9976% (90%/67%)20,000 .. 50,0000%00:00 (00:00)
10 Rooms: The Unsolvable Puzzle May 1, 2015 $14.9973% (89%/66%)0 .. 20,0000%00:00 (00:00)
11 This Starry Midnight We Make Jun 1, 2015 $9.99N/A (N/A)0 .. 20,0000%00:00 (00:00)
12 Forgotten, Not Lost - A Kinetic Novel Apr 1, 2016 $1.9973% (89%)50,000 .. 100,0000.36%06:33 (02:11)
13 Lobotomy Corporation | Monster Management Simulation Apr 9, 2018 $24.9973% (89%)100,000 .. 200,0009.9%20:48 (44:20)
14 Koala Kids Jun 22, 2015 $1.9973% (89%)20,000 .. 50,0000%00:00 (00:00)
15 Gigachess Dec 15, 2015 $3.99N/A (N/A)0 .. 20,0000%00:00 (00:00)
16 Alpha Runner Sep 2, 2015 $0.9964% (86%)100,000 .. 200,0000.88%03:43 (02:28)
17 In Between Aug 21, 2015 $8.9964% (86%/68%)50,000 .. 100,0000%00:00 (00:00)
18 Anode Oct 5, 2015 $3.99N/A (N/A)20,000 .. 50,0000%00:00 (00:00)
19 Security Hole Sep 28, 2016 $9.99N/A (N/A)0 .. 20,0005.56%01:23 (00:27)
20 Sentinel 4: Dark Star Aug 13, 2015 $6.99N/A (N/A)0 .. 20,0005%03:07 (01:02)
21 Iron Sea Defenders Sep 9, 2016 $4.9961% (85%)20,000 .. 50,0000%00:00 (00:00)
22 Project Starship Apr 5, 2016 $0.9961% (85%)200,000 .. 500,0000.16%00:19 (00:12)
23 Crash Drive 2 May 28, 2015 $4.9959% (84%)50,000 .. 100,0000.98%02:17 (01:31)
24 Governor of Poker 2 - Premium Edition Oct 11, 2010 $14.9959% (84%)20,000 .. 50,0000%00:00 (00:00)
25 Collisions Jul 28, 2015 $3.9956% (83%)50,000 .. 100,0000%00:00 (00:00)
26 Cute Things Dying Violently Sep 2, 2015 $2.99N/A (N/A)0 .. 20,0000%00:00 (00:00)
27 Ancients of Ooga May 20, 2011 $9.99N/A (N/A)20,000 .. 50,0000%00:00 (00:00)
28 Automation - The Car Company Tycoon Game Mar 12, 2015 $29.9951% (81%)50,000 .. 100,00021.28%05:23 (02:25)
29 Stay Alight Mar 2, 2015 $3.9951% (81%)20,000 .. 50,0000%00:00 (00:00)
30 Egg Returns Home May 5, 2015 $0.9949% (80%)20,000 .. 50,0000%00:00 (00:00)
31 Until I Have You Apr 4, 2016 $13.9949% (80%)0 .. 20,0000%00:00 (00:00)
32 Space Drifters 2D Mar 28, 2016 $0.99N/A (N/A)20,000 .. 50,0000%00:00 (00:00)
33 CAPSULE May 29, 2014 $4.9947% (79%)0 .. 20,0000%00:00 (00:00)
34 Star Sky - ブルームーン Oct 23, 2015 $3.9947% (79%)0 .. 20,0000%00:00 (00:00)
35 The Last NightMary - A Lenda do Cabeça de Cuia Nov 2, 2015 $3.9947% (79%)50,000 .. 100,0001.45%00:40 (00:26)
36 GamersGoMakers Aug 8, 2014 $9.9947% (79%)0 .. 20,0000%00:00 (00:00)
37 Particulars Nov 19, 2014 $5.99N/A (N/A/74%)20,000 .. 50,0000%00:00 (00:00)
38 MXGP - The Official Motocross Videogame Mar 28, 2014 $19.9943% (77%)50,000 .. 100,0000%00:00 (00:00)
39 Paranormal State: Poison Spring Apr 9, 2014 $9.9943% (77%)50,000 .. 100,0000%00:00 (00:00)
40 Pixel Puzzles 2: Birds Feb 20, 2015 $9.9943% (77%)200,000 .. 500,0000.2%03:02 (01:00)
41 Alchemy Mysteries: Prague Legends Dec 22, 2014 $1.9943% (77%)100,000 .. 200,0000.31%04:59 (01:39)
42 Ionball 2: Ionstorm Jun 6, 2014 $4.9943% (77%/70%)200,000 .. 500,0000.28%01:20 (00:53)
43 Mayhem Intergalactic Jan 22, 2009 $9.99N/A (N/A)0 .. 20,0000%00:00 (00:00)
44 Neon Prism Nov 18, 2016 $4.9939% (75%)50,000 .. 100,0001.22%02:28 (02:40)
45 The Deletion Jul 30, 2015 $1.9939% (75%)20,000 .. 50,0000%00:00 (00:00)
46 BalanCity Sep 21, 2016 $7.9937% (74%)20,000 .. 50,0000.9%00:59 (00:19)
47 Riddles Of The Past Jul 22, 2016 $6.9935% (73%)0 .. 20,0000%00:00 (00:00)
48 Laserlife Sep 22, 2015 $9.9935% (73%)0 .. 20,0000%00:00 (00:00)
49 Crash Wheels Dec 14, 2016 $4.9935% (73%)20,000 .. 50,0000%00:00 (00:00)
50 Crashed Lander Feb 4, 2015 $4.99N/A (N/A)0 .. 20,0000%00:00 (00:00)
51 Strategy & Tactics: Dark Ages Aug 4, 2017 $14.9930% (70%)20,000 .. 50,0000%00:00 (00:00)
52 Impossible Quest Jun 3, 2016 $1.9929% (69%)0 .. 20,0000%00:00 (00:00)
53 Cheesecake Cool Conrad Oct 8, 2014 $4.99N/A (N/A)0 .. 20,0000%00:00 (00:00)
54 Ace Of Words May 13, 2016 $4.99N/A (N/A)100,000 .. 200,0000.32%02:10 (00:43)
55 Mind Games Mar 4, 2016 $2.9926% (67%)0 .. 20,0000%00:00 (00:00)
56 Wildlife Park 2 Jul 17, 2014 $6.9924% (66%)100,000 .. 200,0000%00:00 (00:00)
57 Viking Brothers Apr 23, 2014 $9.99N/A (N/A)0 .. 20,0000%00:00 (00:00)
58 Caravanserail Mar 10, 2016 $2.99N/A (N/A)0 .. 20,0000%00:00 (00:00)
59 Reset 1-1 Aug 30, 2016 $0.4922% (64%)200,000 .. 500,0000.1%01:35 (00:31)
60 Hoplite Dec 14, 2016 $0.99N/A (N/A)50,000 .. 100,0000.45%01:57 (00:39)
61 Metrocide Dec 15, 2014 $12.99N/A (N/A/68%)20,000 .. 50,0000%00:00 (00:00)
62 Marble Duel Nov 12, 2015 $4.9921% (63%)50,000 .. 100,0000.91%02:12 (00:44)
63 Meadowland Oct 22, 2014 $3.99N/A (N/A)0 .. 20,0000%00:00 (00:00)
64 Goodnight Butcher Dec 18, 2015 $1.99N/A (N/A)20,000 .. 50,0000%00:00 (00:00)
65 Airstrike HD Mar 23, 2016 $1.99N/A (N/A)100,000 .. 200,0000%00:00 (00:00)
66 Pixel Survivors May 5, 2016 $3.9917% (60%)50,000 .. 100,0000%00:00 (00:00)
67 Won't You Be My Laser? Sep 2, 2016 $0.99N/A (N/A)0 .. 20,0000%00:00 (00:00)
68 Star Chronicles: Delta Quadrant Jul 7, 2015 $0.9916% (59%)200,000 .. 500,0000.1%07:25 (02:28)
69 Boss Monster Apr 28, 2016 $4.9915% (58%)20,000 .. 50,0000%00:00 (00:00)
70 Annie Amber Jun 17, 2016 $2.99N/A (N/A)0 .. 20,0000%00:00 (00:00)
71 Autocraft Sep 20, 2017 $9.9913% (55%)0 .. 20,0000%00:00 (00:00)
72 Pointless Feb 22, 2016 Free11% (53%)0 .. 20,0000%00:00 (00:00)
73 Quantum Rush Champions Dec 4, 2014 $9.9910% (51%)20,000 .. 50,0000%00:00 (00:00)
74 The Good Life Nov 21, 2014 $9.9910% (51%)0 .. 20,0000%00:00 (00:00)
75 Cosmonautica Jul 31, 2015 $9.9910% (51%)100,000 .. 200,0000.44%01:57 (00:39)
76 Autumn May 14, 2016 $2.99N/A (N/A)50,000 .. 100,0000%00:00 (00:00)
77 Evolution Jun 6, 2016 FreeN/A (N/A)20,000 .. 50,0000%00:00 (00:00)
78 Luke Sidewalker Dec 5, 2016 $0.99N/A (N/A)50,000 .. 100,0000%00:00 (00:00)
79 Melting Hearts: Our Love Will Grow 2 Apr 29, 2016 N/AN/A (N/A)20,000 .. 50,0000%00:00 (00:00)
80 White Mirror Jan 26, 2016 $1.995% (39%)200,000 .. 500,0000%00:00 (00:00)
81 The Battle for Sector 219 Jun 2, 2016 $6.99N/A (N/A)0 .. 20,0000%00:00 (00:00)
82 Space Beret Oct 25, 2016 $0.99N/A (N/A)200,000 .. 500,0000.09%00:15 (00:05)
83 1953: NATO vs Warsaw Pact Dec 4, 2014 $4.99N/A (N/A)0 .. 20,0000%00:00 (00:00)
84 Robot vs Birds Zombies Jul 23, 2015 $0.632% (31%)0 .. 20,0000%00:00 (00:00)
85 Guardians of Victoria Apr 29, 2016 $0.491% (23%)200,000 .. 500,0000.36%05:10 (05:53)
86 Reigning Cats Aug 28, 2015 $1.99N/A (N/A)0 .. 20,0000%00:00 (00:00)
87 Blob From Space Oct 15, 2014 $5.99N/A (N/A)20,000 .. 50,0000%00:00 (00:00)
88 Way to Go! Jun 8, 2015 $4.99N/A (N/A)0 .. 20,0000%00:00 (00:00)
89 Zombie Gotchi Mar 23, 2016 $9.99N/A (N/A)0 .. 20,0000%00:00 (00:00)
90 Plight of the Zombie Feb 22, 2016 $2.99N/A (N/A)0 .. 20,0000%00:00 (00:00)
91 Attempt[42] Dec 8, 2016 $2.99N/A (N/A)50,000 .. 100,0000.27%00:01 (00:00)
92 The Architect Jun 4, 2015 $2.99N/A (N/A)0 .. 20,0000%00:00 (00:00)
93 Tyler Jan 14, 2016 $2.99N/A (N/A)0 .. 20,0000%00:00 (00:00)
94 Yrminsul Mar 2, 2016 $9.99N/A (N/A)0 .. 20,0000%00:00 (00:00)
95 Robot Rescue Revolution Jul 11, 2014 $4.99N/A (N/A)0 .. 20,0000%00:00 (00:00)
96 Magic Box Jan 19, 2017 $0.49N/A (N/A)50,000 .. 100,0000%00:00 (00:00)
97 BomberZone Jun 10, 2016 $1.99N/A (N/A)20,000 .. 50,0000%00:00 (00:00)

Tags over time:

Access restricted.

This feature is only available to users with special access rights. Sorry.

If you want to proceed, you need to register or log in first and then back Steam Spy on Patreon. Look for Indie or Pro pledge.

Don't forget to use the same email as on Steam Spy!

Owners of this game also own:

Access restricted.

This feature is only available to users with special access rights. Sorry.

If you want to proceed, you need to register or log in first and then back Steam Spy on Patreon. Look for Indie or Pro pledge.

Don't forget to use the same email as on Steam Spy!

Playtime distribution:

Access restricted.

This feature is only available to users with special access rights. Sorry.

If you want to proceed, you need to register or log in first and then back Steam Spy on Patreon. Look for Indie or Pro pledge.

Don't forget to use the same email as on Steam Spy!

Playtime (2 weeks):

Access restricted.

This feature is only available to users with special access rights. Sorry.

If you want to proceed, you need to register or log in first and then back Steam Spy on Patreon. Look for Indie or Pro pledge.

Don't forget to use the same email as on Steam Spy!

User reviews:

Login required.

Please register or log in to see this information.